Time;durP1;ratioP1;P1;durP2;ratioP2;P2;SDS_P1;SDS_P2;PMS_P1;PMS_P2;Temp;Humidity;BMP_temperature;BMP_pressure;BME280_temperature;BME280_humidity;BME280_pressure;Samples;Min_cycle;Max_cycle;Signal;HPM_P1;HPM_P2
2022/05/16 00:00:16;;;;;;;12.30;3.47;;;;;;;-145.50;100.00;65435.88;5072441;28;20135;-65
2022/05/16 00:02:43;;;;;;;12.25;3.22;;;;;;;-145.50;100.00;65435.88;5080778;28;20131;-65
2022/05/16 00:05:10;;;;;;;8.65;2.70;;;;;;;-145.50;100.00;65435.88;5080300;28;20051;-66
2022/05/16 00:07:37;;;;;;;10.40;3.15;;;;;;;-145.50;100.00;65435.88;5073354;28;20082;-65
2022/05/16 00:10:05;;;;;;;11.80;3.10;;;;;;;-145.50;100.00;65435.88;5074707;28;20048;-65
2022/05/16 00:12:32;;;;;;;11.55;3.08;;;;;;;-145.50;100.00;65435.88;5066798;28;20054;-65
2022/05/16 00:14:58;;;;;;;11.65;3.35;;;;;;;-145.50;100.00;65435.88;5067743;28;20191;-64
2022/05/16 00:17:25;;;;;;;11.30;3.25;;;;;;;-145.50;100.00;65435.88;5074598;28;20127;-64
2022/05/16 00:19:51;;;;;;;8.90;3.13;;;;;;;-145.50;100.00;65435.88;5072606;28;20052;-63
2022/05/16 00:22:18;;;;;;;9.32;3.38;;;;;;;-145.50;100.00;65435.88;5063594;28;20048;-64
2022/05/16 00:24:44;;;;;;;9.10;3.00;;;;;;;-145.50;100.00;65435.88;5055919;28;20044;-64
2022/05/16 00:27:12;;;;;;;12.07;3.47;;;;;;;-145.50;100.00;65435.88;5068150;28;20152;-64
2022/05/16 00:29:39;;;;;;;12.88;3.60;;;;;;;-145.50;100.00;65435.88;5070731;28;20271;-64
2022/05/16 00:32:07;;;;;;;12.55;3.33;;;;;;;-145.50;100.00;65435.88;5069361;28;20040;-65
2022/05/16 00:34:33;;;;;;;9.82;3.58;;;;;;;-145.50;100.00;65435.88;5071797;28;20091;-64
2022/05/16 00:37:00;;;;;;;12.52;3.53;;;;;;;-145.50;100.00;65435.88;5063737;28;20506;-64
2022/05/16 00:39:26;;;;;;;13.05;3.65;;;;;;;-145.50;100.00;65435.88;5063914;28;20051;-66
2022/05/16 00:41:53;;;;;;;11.20;3.00;;;;;;;-145.50;100.00;65435.88;5060287;28;20113;-65
2022/05/16 00:44:21;;;;;;;10.48;3.55;;;;;;;-145.50;100.00;65435.88;5065527;28;20098;-63
2022/05/16 00:46:48;;;;;;;8.77;2.97;;;;;;;-145.50;100.00;65435.88;5066399;28;20131;-65
2022/05/16 00:49:29;;;;;;;13.02;3.80;;;;;;;-145.50;100.00;65435.88;5074304;28;20923;-65
2022/05/16 00:52:03;;;;;;;10.15;3.63;;;;;;;-145.50;100.00;65435.88;5058170;28;20055;-63
2022/05/16 00:54:34;;;;;;;9.60;3.55;;;;;;;-145.50;100.00;65435.88;5068204;28;20056;-65
2022/05/16 00:57:05;;;;;;;12.50;3.75;;;;;;;-145.50;100.00;65435.88;5079554;28;20060;-65
2022/05/16 00:59:43;;;;;;;12.10;3.75;;;;;;;-145.50;100.00;65435.88;5066985;28;20135;-65
2022/05/16 01:04:57;;;;;;;10.30;3.70;;;;;;;-145.50;100.00;65435.88;5061736;28;20458;-64
2022/05/16 01:07:31;;;;;;;13.25;4.45;;;;;;;-145.50;100.00;65435.88;5069790;28;20448;-65
2022/05/16 01:09:58;;;;;;;11.32;4.20;;;;;;;-145.50;100.00;65435.88;5065499;28;20063;-65
2022/05/16 01:12:30;;;;;;;11.88;4.18;;;;;;;-145.50;100.00;65435.88;5070373;28;20549;-65
2022/05/16 01:15:00;;;;;;;11.52;4.22;;;;;;;-145.50;100.00;65435.88;5063466;28;20167;-65
2022/05/16 01:17:27;;;;;;;12.93;4.68;;;;;;;-145.50;100.00;65435.88;5065545;28;20467;-66
2022/05/16 01:19:54;;;;;;;12.32;4.30;;;;;;;-145.50;100.00;65435.88;5069539;28;20129;-65
2022/05/16 01:22:42;;;;;;;12.32;4.57;;;;;;;-145.50;100.00;65435.88;5054769;28;20048;-65
2022/05/16 01:25:11;;;;;;;14.40;4.28;;;;;;;-145.50;100.00;65435.88;5077372;28;20151;-66
2022/05/16 01:27:47;;;;;;;11.98;4.25;;;;;;;-145.50;100.00;65435.88;5057984;28;20049;-66
2022/05/16 01:30:17;;;;;;;10.05;4.15;;;;;;;-145.50;100.00;65435.88;5081487;28;20472;-65
2022/05/16 01:32:44;;;;;;;12.98;5.03;;;;;;;-145.50;100.00;65435.88;5058459;28;20266;-64
2022/05/16 01:35:11;;;;;;;15.07;4.30;;;;;;;-145.50;100.00;65435.88;5062737;28;20561;-65
2022/05/16 01:40:23;;;;;;;8.98;4.03;;;;;;;-145.50;100.00;65435.88;5065853;28;20068;-65
2022/05/16 01:42:49;;;;;;;12.75;4.55;;;;;;;-145.50;100.00;65435.88;5074440;28;20127;-66
2022/05/16 01:45:16;;;;;;;11.73;4.20;;;;;;;-145.50;100.00;65435.88;5067181;28;20587;-64
2022/05/16 01:47:43;;;;;;;12.27;4.47;;;;;;;-145.50;100.00;65435.88;5075681;28;20066;-67
2022/05/16 01:50:10;;;;;;;10.43;4.03;;;;;;;-145.50;100.00;65435.88;5061046;28;20577;-65
2022/05/16 01:52:36;;;;;;;14.48;4.50;;;;;;;-145.50;100.00;65435.88;5066239;28;20049;-65
2022/05/16 01:55:04;;;;;;;9.95;4.38;;;;;;;-145.50;100.00;65435.88;5066813;28;20147;-65
2022/05/16 01:57:31;;;;;;;15.38;4.78;;;;;;;-145.50;100.00;65435.88;5071072;28;20124;-64
2022/05/16 01:59:57;;;;;;;14.63;4.88;;;;;;;-145.50;100.00;65435.88;5071632;28;20060;-64
2022/05/16 02:02:24;;;;;;;8.20;4.30;;;;;;;-145.50;100.00;65435.88;5059269;28;20609;-64
2022/05/16 02:04:50;;;;;;;13.55;5.15;;;;;;;-145.50;100.00;65435.88;5078189;28;20048;-65
2022/05/16 02:07:17;;;;;;;11.50;4.28;;;;;;;-145.50;100.00;65435.88;5070027;28;20058;-63
2022/05/16 02:09:43;;;;;;;14.30;5.25;;;;;;;-145.50;100.00;65435.88;5062328;28;20600;-66
2022/05/16 02:12:10;;;;;;;12.20;4.88;;;;;;;-145.50;100.00;65435.88;5073862;28;20556;-65
2022/05/16 02:14:37;;;;;;;11.85;5.00;;;;;;;-145.50;100.00;65435.88;5069255;28;20143;-64
2022/05/16 02:17:03;;;;;;;12.88;4.95;;;;;;;-145.50;100.00;65435.88;5061413;28;20056;-64
2022/05/16 02:19:30;;;;;;;9.45;4.20;;;;;;;-145.50;100.00;65435.88;5069944;28;20059;-64
2022/05/16 02:24:42;;;;;;;13.38;5.13;;;;;;;-145.50;100.00;65435.88;5072792;28;20079;-65
2022/05/16 02:27:11;;;;;;;12.15;4.55;;;;;;;-145.50;100.00;65435.88;5082013;28;20244;-64
2022/05/16 02:29:38;;;;;;;14.32;4.28;;;;;;;-145.50;100.00;65435.88;5073744;28;20159;-65
2022/05/16 02:32:06;;;;;;;14.48;4.70;;;;;;;-145.50;100.00;65435.88;5076256;28;20044;-65
2022/05/16 02:34:32;;;;;;;14.33;4.63;;;;;;;-145.50;100.00;65435.88;5083345;28;20174;-65
2022/05/16 02:36:59;;;;;;;10.63;4.50;;;;;;;-145.50;100.00;65435.88;5075755;28;20059;-64
2022/05/16 02:39:26;;;;;;;11.38;4.43;;;;;;;-145.50;100.00;65435.88;5083044;28;20066;-65
2022/05/16 02:41:53;;;;;;;15.55;4.70;;;;;;;-145.50;100.00;65435.88;5075743;28;20044;-65
2022/05/16 02:44:19;;;;;;;16.17;5.22;;;;;;;-145.50;100.00;65435.88;5075932;28;20091;-64
2022/05/16 02:46:45;;;;;;;14.10;5.07;;;;;;;-145.50;100.00;65435.88;5072116;28;20043;-64
2022/05/16 02:49:18;;;;;;;14.00;4.80;;;;;;;-145.50;100.00;65435.88;5081778;28;20149;-64
2022/05/16 02:51:44;;;;;;;12.82;5.03;;;;;;;-145.50;100.00;65435.88;5082178;28;20111;-64
2022/05/16 02:54:10;;;;;;;15.10;5.40;;;;;;;-145.50;100.00;65435.88;5074493;28;20048;-65
2022/05/16 02:56:37;;;;;;;14.25;5.47;;;;;;;-145.50;100.00;65435.88;5072800;28;20055;-65
2022/05/16 02:59:04;;;;;;;13.30;5.22;;;;;;;-145.50;100.00;65435.88;5068763;28;20627;-65
2022/05/16 03:01:34;;;;;;;12.45;5.45;;;;;;;-145.50;100.00;65435.88;5077612;28;20048;-65
2022/05/16 03:04:02;;;;;;;14.25;5.40;;;;;;;-145.50;100.00;65435.88;5071810;28;20117;-65
2022/05/16 03:06:28;;;;;;;13.18;5.50;;;;;;;-145.50;100.00;65435.88;5093039;28;20578;-64
2022/05/16 03:08:55;;;;;;;18.02;6.07;;;;;;;-145.50;100.00;65435.88;5083085;28;20130;-65
2022/05/16 03:11:22;;;;;;;14.10;5.72;;;;;;;-145.50;100.00;65435.88;5068623;28;20155;-65
2022/05/16 03:13:49;;;;;;;13.40;6.10;;;;;;;-145.50;100.00;65435.88;5076642;28;20059;-65
2022/05/16 03:16:17;;;;;;;20.92;5.95;;;;;;;-145.50;100.00;65435.88;5073681;28;20143;-64
2022/05/16 03:18:44;;;;;;;11.52;6.00;;;;;;;-145.50;100.00;65435.88;5082632;28;20428;-64
2022/05/16 03:21:11;;;;;;;12.15;5.30;;;;;;;-145.50;100.00;65435.88;5076218;28;20761;-64
2022/05/16 03:23:37;;;;;;;11.30;5.53;;;;;;;-145.50;100.00;65435.88;5080132;28;20062;-64
2022/05/16 03:26:04;;;;;;;13.73;5.90;;;;;;;-145.50;100.00;65435.88;5070213;28;20896;-65
2022/05/16 03:28:30;;;;;;;16.13;6.00;;;;;;;-145.50;100.00;65435.88;5056392;28;20066;-65
2022/05/16 03:30:59;;;;;;;16.98;5.68;;;;;;;-145.50;100.00;65435.88;5075270;28;20052;-65
2022/05/16 03:33:26;;;;;;;17.40;5.68;;;;;;;-145.50;100.00;65435.88;5060669;28;20130;-64
2022/05/16 03:35:55;;;;;;;14.82;5.90;;;;;;;-145.50;100.00;65435.88;5070219;28;20055;-65
2022/05/16 03:41:13;;;;;;;13.75;6.60;;;;;;;-145.50;100.00;65435.88;5061401;28;20055;-65
2022/05/16 03:43:41;;;;;;;15.63;6.65;;;;;;;-145.50;100.00;65435.88;5069058;28;20052;-64
2022/05/16 03:46:08;;;;;;;12.07;6.13;;;;;;;-145.50;100.00;65435.88;5059501;28;20056;-64
2022/05/16 03:48:35;;;;;;;16.77;6.82;;;;;;;-145.50;100.00;65435.88;5077542;28;20567;-65
2022/05/16 03:51:04;;;;;;;14.80;6.95;;;;;;;-145.50;100.00;65435.88;5061330;28;20120;-64
2022/05/16 03:53:30;;;;;;;12.55;5.75;;;;;;;-145.50;100.00;65435.88;5074973;28;20181;-64
2022/05/16 03:55:57;;;;;;;18.73;6.70;;;;;;;-145.50;100.00;65435.88;5062421;28;20159;-63
2022/05/16 03:58:23;;;;;;;11.30;6.32;;;;;;;-145.50;100.00;65435.88;5066526;28;20121;-64
2022/05/16 04:00:50;;;;;;;15.55;6.95;;;;;;;-145.50;100.00;65435.88;5073236;28;20588;-64
2022/05/16 04:03:16;;;;;;;14.02;6.28;;;;;;;-145.50;100.00;65435.88;5072172;28;20097;-65
2022/05/16 04:05:43;;;;;;;16.85;6.45;;;;;;;-145.50;100.00;65435.88;5074269;28;20147;-64
2022/05/16 04:08:09;;;;;;;13.85;6.97;;;;;;;-145.50;100.00;65435.88;5066049;28;20815;-62
2022/05/16 04:10:37;;;;;;;11.13;5.30;;;;;;;-145.50;100.00;65435.88;5074415;28;20147;-64
2022/05/16 04:13:03;;;;;;;12.10;5.60;;;;;;;-145.50;100.00;65435.88;5066214;28;20158;-64
2022/05/16 04:15:30;;;;;;;14.25;6.20;;;;;;;-145.50;100.00;65435.88;5070786;28;20371;-64
2022/05/16 04:17:56;;;;;;;12.48;5.57;;;;;;;-145.50;100.00;65435.88;5070517;28;20852;-63
2022/05/16 04:20:23;;;;;;;13.77;5.57;;;;;;;-145.50;100.00;65435.88;5060497;28;20156;-64
2022/05/16 04:22:49;;;;;;;12.77;5.78;;;;;;;-145.50;100.00;65435.88;5060353;28;20115;-64
2022/05/16 04:25:18;;;;;;;14.20;5.35;;;;;;;-145.50;100.00;65435.88;5068640;28;20052;-66
2022/05/16 04:27:51;;;;;;;12.63;5.38;;;;;;;-145.50;100.00;65435.88;5067708;28;20083;-65
2022/05/16 04:30:18;;;;;;;11.65;5.13;;;;;;;-145.50;100.00;65435.88;5070107;28;20135;-64
2022/05/16 04:32:44;;;;;;;10.68;4.78;;;;;;;-145.50;100.00;65435.88;5071561;28;20826;-64
2022/05/16 04:35:11;;;;;;;13.68;5.05;;;;;;;-145.50;100.00;65435.88;5066158;28;20056;-65
2022/05/16 04:37:38;;;;;;;10.68;4.35;;;;;;;-145.50;100.00;65435.88;5070493;28;20443;-65
2022/05/16 04:40:08;;;;;;;12.35;4.70;;;;;;;-145.50;100.00;65435.88;5065767;28;20048;-64
2022/05/16 04:42:40;;;;;;;16.40;5.47;;;;;;;-145.50;100.00;65435.88;5064796;28;20133;-65
2022/05/16 04:45:09;;;;;;;13.40;5.10;;;;;;;-145.50;100.00;65435.88;5057939;28;20489;-65
2022/05/16 04:47:35;;;;;;;8.40;4.13;;;;;;;-145.50;100.00;65435.88;5065661;28;20060;-66
2022/05/16 04:50:03;;;;;;;12.98;5.15;;;;;;;-145.50;100.00;65435.88;5057139;28;20147;-63
2022/05/16 04:52:30;;;;;;;11.35;4.97;;;;;;;-145.50;100.00;65435.88;5063877;28;20270;-63
2022/05/16 04:54:56;;;;;;;15.25;4.68;;;;;;;-145.50;100.00;65435.88;5063696;28;20063;-65
2022/05/16 04:57:23;;;;;;;17.67;5.32;;;;;;;-145.50;100.00;65435.88;5072018;28;20134;-65
2022/05/16 04:59:50;;;;;;;11.43;4.85;;;;;;;-145.50;100.00;65435.88;5069592;28;20163;-65
2022/05/16 05:02:18;;;;;;;14.75;5.20;;;;;;;-145.50;100.00;65435.88;5071119;28;20127;-64
2022/05/16 05:04:45;;;;;;;15.18;5.60;;;;;;;-145.50;100.00;65435.88;5071289;28;20135;-65
2022/05/16 05:07:12;;;;;;;12.63;4.82;;;;;;;-145.50;100.00;65435.88;5085045;28;20052;-65
2022/05/16 05:15:23;;;;;;;11.38;4.85;;;;;;;-145.50;100.00;65435.88;5068706;28;20053;-64
2022/05/16 05:17:50;;;;;;;11.35;5.00;;;;;;;-145.50;100.00;65435.88;5061466;28;20113;-62
2022/05/16 05:20:17;;;;;;;11.95;5.07;;;;;;;-145.50;100.00;65435.88;5074037;28;20155;-65
2022/05/16 05:22:46;;;;;;;13.18;5.15;;;;;;;-145.50;100.00;65435.88;5075605;28;20135;-64
2022/05/16 05:25:17;;;;;;;9.82;5.30;;;;;;;-145.50;100.00;65435.88;5085042;28;20062;-64
2022/05/16 05:27:45;;;;;;;10.93;5.75;;;;;;;-145.50;100.00;65435.88;5076833;28;20894;-64
2022/05/16 05:30:17;;;;;;;15.20;5.90;;;;;;;-145.50;100.00;65435.88;5078768;28;20079;-64
2022/05/16 05:32:43;;;;;;;19.60;6.20;;;;;;;-145.50;100.00;65435.88;5067832;28;20353;-64
2022/05/16 05:35:11;;;;;;;12.75;5.50;;;;;;;-145.50;100.00;65435.88;5072038;28;20044;-64
2022/05/16 05:37:38;;;;;;;12.52;5.55;;;;;;;-145.50;100.00;65435.88;5076940;28;20048;-63
2022/05/16 05:40:06;;;;;;;11.25;5.03;;;;;;;-145.50;100.00;65435.88;5056542;28;20120;-64
2022/05/16 05:42:34;;;;;;;12.20;5.35;;;;;;;-145.50;100.00;65435.88;5068752;28;20525;-64
2022/05/16 05:45:01;;;;;;;17.98;8.40;;;;;;;-145.50;100.00;65435.88;5055691;28;20105;-64
2022/05/16 05:47:28;;;;;;;15.75;7.07;;;;;;;-145.50;100.00;65435.88;5070610;28;20058;-64
2022/05/16 05:49:54;;;;;;;12.50;6.45;;;;;;;-145.50;100.00;65435.88;5085020;28;20094;-64
2022/05/16 05:52:22;;;;;;;15.60;5.43;;;;;;;-145.50;100.00;65435.88;5066933;28;20176;-64
2022/05/16 05:54:48;;;;;;;11.73;5.50;;;;;;;-145.50;100.00;65435.88;5073645;28;20135;-66
2022/05/16 05:57:16;;;;;;;11.13;5.07;;;;;;;-145.50;100.00;65435.88;5066511;28;20093;-64
2022/05/16 05:59:43;;;;;;;17.63;5.47;;;;;;;-145.50;100.00;65435.88;5062197;28;20481;-62
2022/05/16 06:02:10;;;;;;;9.40;4.43;;;;;;;-145.50;100.00;65435.88;5056846;28;20135;-64
2022/05/16 06:04:38;;;;;;;8.50;5.10;;;;;;;-145.50;100.00;65435.88;5077638;28;20055;-63
2022/05/16 06:07:05;;;;;;;15.45;5.55;;;;;;;-145.50;100.00;65435.88;5083791;28;20140;-64
2022/05/16 06:09:31;;;;;;;13.25;5.22;;;;;;;-145.50;100.00;65435.88;5077963;28;20044;-65
2022/05/16 06:11:59;;;;;;;12.65;5.05;;;;;;;-145.50;100.00;65435.88;5080043;28;20079;-65
2022/05/16 06:14:26;;;;;;;11.07;4.82;;;;;;;-145.50;100.00;65435.88;5061425;28;20072;-65
2022/05/16 06:16:54;;;;;;;12.52;5.75;;;;;;;-145.50;100.00;65435.88;5082602;28;20159;-65
2022/05/16 06:19:21;;;;;;;12.73;5.20;;;;;;;-145.50;100.00;65435.88;5068268;28;20059;-65
2022/05/16 06:21:48;;;;;;;14.90;5.47;;;;;;;-145.50;100.00;65435.88;5059040;28;20486;-65
2022/05/16 06:27:02;;;;;;;10.73;5.82;;;;;;;-145.50;100.00;65435.88;5062138;28;20056;-64
2022/05/16 06:29:29;;;;;;;15.30;5.43;;;;;;;-145.50;100.00;65435.88;5078661;28;20044;-65
2022/05/16 06:31:56;;;;;;;12.32;5.47;;;;;;;-145.50;100.00;65435.88;5050966;28;20139;-65
2022/05/16 06:34:23;;;;;;;13.18;5.93;;;;;;;-145.50;100.00;65435.88;5074501;28;20044;-64
2022/05/16 06:36:49;;;;;;;10.60;5.13;;;;;;;-145.50;100.00;65435.88;5074722;28;20347;-63
2022/05/16 06:39:15;;;;;;;19.17;7.43;;;;;;;-145.50;100.00;65435.88;5081349;28;20058;-65
2022/05/16 06:41:42;;;;;;;15.07;6.72;;;;;;;-145.50;100.00;65435.88;5065315;28;20127;-64
2022/05/16 06:44:13;;;;;;;12.48;5.35;;;;;;;-145.50;100.00;65435.88;5059761;28;20048;-64
2022/05/16 06:46:41;;;;;;;17.02;5.60;;;;;;;-145.50;100.00;65435.88;5082122;28;20075;-64
2022/05/16 06:49:08;;;;;;;16.17;5.50;;;;;;;-145.50;100.00;65435.88;5066472;28;20527;-64
2022/05/16 06:51:34;;;;;;;14.65;6.22;;;;;;;-145.50;100.00;65435.88;5077523;28;20543;-64
2022/05/16 06:54:01;;;;;;;10.82;4.82;;;;;;;-145.50;100.00;65435.88;5073450;28;20215;-62
2022/05/16 06:56:28;;;;;;;11.95;5.18;;;;;;;-145.50;100.00;65435.88;5066990;28;20083;-64
2022/05/16 06:58:54;;;;;;;16.50;5.13;;;;;;;-145.50;100.00;65435.88;5082278;28;20412;-64
2022/05/16 07:01:21;;;;;;;16.10;5.38;;;;;;;-145.50;100.00;65435.88;5075940;28;20616;-65
2022/05/16 07:03:47;;;;;;;15.40;5.53;;;;;;;-145.50;100.00;65435.88;5074260;28;20048;-64
2022/05/16 07:06:16;;;;;;;15.68;5.53;;;;;;;-145.50;100.00;65435.88;5077483;28;20051;-64
2022/05/16 07:08:42;;;;;;;13.98;5.53;;;;;;;-145.50;100.00;65435.88;5102787;28;20146;-65
2022/05/16 07:11:09;;;;;;;13.93;5.60;;;;;;;-145.50;100.00;65435.88;5083539;28;20055;-65
2022/05/16 07:13:36;;;;;;;11.52;6.20;;;;;;;-145.50;100.00;65435.88;5074575;28;20428;-65
2022/05/16 07:16:02;;;;;;;11.88;5.20;;;;;;;-145.50;100.00;65435.88;5064019;28;20056;-63
2022/05/16 07:18:29;;;;;;;13.70;5.53;;;;;;;-145.50;100.00;65435.88;5068978;28;20051;-64
2022/05/16 07:20:57;;;;;;;11.63;5.32;;;;;;;-145.50;100.00;65435.88;5077082;28;20513;-64
2022/05/16 07:23:26;;;;;;;11.07;5.88;;;;;;;-145.50;100.00;65435.88;5073604;28;20054;-63
2022/05/16 07:28:39;;;;;;;11.32;5.75;;;;;;;-145.50;100.00;65435.88;5068116;28;20194;-64
2022/05/16 07:31:06;;;;;;;14.00;5.75;;;;;;;-145.50;100.00;65435.88;5079829;28;20052;-64
2022/05/16 07:33:34;;;;;;;14.18;5.60;;;;;;;-145.50;100.00;65435.88;5074772;28;20048;-64
2022/05/16 07:36:01;;;;;;;16.13;5.78;;;;;;;-145.50;100.00;65435.88;5068220;28;20056;-64
2022/05/16 07:38:28;;;;;;;12.10;5.13;;;;;;;-145.50;100.00;65435.88;5072726;28;20048;-65
2022/05/16 07:40:56;;;;;;;9.60;4.93;;;;;;;-145.50;100.00;65435.88;5075231;28;20047;-65
2022/05/16 07:43:24;;;;;;;9.75;5.32;;;;;;;-145.50;100.00;65435.88;5082641;28;20058;-64
2022/05/16 07:45:51;;;;;;;10.55;5.68;;;;;;;-145.50;100.00;65435.88;5073665;28;20097;-65
2022/05/16 07:48:19;;;;;;;14.80;5.68;;;;;;;-145.50;100.00;65435.88;5080093;28;20497;-65
2022/05/16 07:50:48;;;;;;;14.63;5.70;;;;;;;-145.50;100.00;65435.88;5080956;28;20191;-64
2022/05/16 07:53:15;;;;;;;13.07;5.15;;;;;;;-145.50;100.00;65435.88;5074511;28;20083;-64
2022/05/16 07:55:44;;;;;;;11.38;5.63;;;;;;;-145.50;100.00;65435.88;5082103;28;20075;-63
2022/05/16 07:58:12;;;;;;;12.38;5.25;;;;;;;-145.50;100.00;65435.88;5075768;28;20535;-64
2022/05/16 08:00:39;;;;;;;12.85;4.75;;;;;;;-145.50;100.00;65435.88;5075946;28;20059;-63
2022/05/16 08:03:10;;;;;;;12.15;4.65;;;;;;;-145.50;100.00;65435.88;5065327;28;20044;-64
2022/05/16 08:05:37;;;;;;;12.57;5.70;;;;;;;-145.50;100.00;65435.88;5069876;28;20126;-63
2022/05/16 08:10:50;;;;;;;13.80;5.07;;;;;;;-145.50;100.00;65435.88;5065513;28;20058;-65
2022/05/16 08:13:17;;;;;;;12.20;4.80;;;;;;;-145.50;100.00;65435.88;5080537;28;20127;-63
2022/05/16 08:15:44;;;;;;;13.80;5.70;;;;;;;-145.50;100.00;65435.88;5065023;28;20131;-65
2022/05/16 08:18:12;;;;;;;10.88;5.32;;;;;;;-145.50;100.00;65435.88;5052794;28;20136;-64
2022/05/16 08:20:42;;;;;;;10.98;4.90;;;;;;;-145.50;100.00;65435.88;5061064;28;20052;-64
2022/05/16 08:23:14;;;;;;;14.77;4.30;;;;;;;-145.50;100.00;65435.88;5073001;28;20057;-63
2022/05/16 08:25:44;;;;;;;10.32;4.18;;;;;;;-145.50;100.00;65435.88;5075856;28;20050;-65
2022/05/16 08:28:12;;;;;;;9.77;4.45;;;;;;;-145.50;100.00;65435.88;5063194;28;20530;-64
2022/05/16 08:30:39;;;;;;;10.73;4.22;;;;;;;-145.50;100.00;65435.88;5066687;28;20584;-65
2022/05/16 08:33:06;;;;;;;10.15;4.30;;;;;;;-145.50;100.00;65435.88;5067453;28;20534;-66
2022/05/16 08:35:33;;;;;;;10.02;4.72;;;;;;;-145.50;100.00;65435.88;5076939;28;20123;-64
2022/05/16 08:40:55;;;;;;;14.10;5.10;;;;;;;-145.50;100.00;65435.88;5079671;28;20052;-63
2022/05/16 08:43:35;;;;;;;16.35;5.53;;;;;;;-145.50;100.00;65435.88;5069908;28;20048;-62
2022/05/16 08:46:09;;;;;;;11.07;4.90;;;;;;;-145.50;100.00;65435.88;5077115;28;20097;-65
2022/05/16 08:48:38;;;;;;;12.93;4.75;;;;;;;-145.50;100.00;65435.88;5086263;28;20139;-64
2022/05/16 08:51:23;;;;;;;17.13;5.00;;;;;;;-145.50;100.00;65435.88;5070169;28;20092;-63
2022/05/16 08:54:25;;;;;;;9.65;4.45;;;;;;;-145.50;100.00;65435.88;5080206;28;20105;-65
2022/05/16 08:56:55;;;;;;;8.35;4.32;;;;;;;-145.50;100.00;65435.88;5044795;28;20523;-66
2022/05/16 08:59:25;;;;;;;13.35;4.55;;;;;;;-145.50;100.00;65435.88;5075083;28;20052;-65
2022/05/16 09:01:55;;;;;;;11.20;4.95;;;;;;;-145.50;100.00;65435.88;5071392;28;20504;-64
2022/05/16 09:04:22;;;;;;;16.13;4.45;;;;;;;-145.50;100.00;65435.88;5080339;28;20163;-67
2022/05/16 09:07:09;;;;;;;13.73;4.45;;;;;;;-145.50;100.00;65435.88;5071140;28;21045;-67
2022/05/16 09:10:01;;;;;;;12.18;4.55;;;;;;;-145.50;100.00;65435.88;5079823;28;20152;-65
2022/05/16 09:12:43;;;;;;;9.93;4.40;;;;;;;-145.50;100.00;65435.88;5064535;28;20064;-67
2022/05/16 09:15:25;;;;;;;12.93;4.70;;;;;;;-145.50;100.00;65435.88;5048725;28;20135;-65
2022/05/16 09:18:26;;;;;;;9.65;4.50;;;;;;;-145.50;100.00;65435.88;5075784;28;20052;-64
2022/05/16 09:21:08;;;;;;;8.60;4.18;;;;;;;-145.50;100.00;65435.88;5066217;28;20090;-64
2022/05/16 09:23:59;;;;;;;11.43;4.00;;;;;;;-145.50;100.00;65435.88;5063850;28;20048;-64
2022/05/16 09:26:34;;;;;;;11.90;4.78;;;;;;;-145.50;100.00;65435.88;5068856;28;20072;-65
2022/05/16 09:29:26;;;;;;;10.20;4.75;;;;;;;-145.50;100.00;65435.88;5077433;28;20060;-65
2022/05/16 09:32:00;;;;;;;12.02;4.88;;;;;;;-145.50;100.00;65435.88;5068546;28;20143;-64
2022/05/16 09:34:27;;;;;;;10.68;4.88;;;;;;;-145.50;100.00;65435.88;5079702;28;20044;-65
2022/05/16 09:36:54;;;;;;;10.80;4.72;;;;;;;-145.50;100.00;65435.88;5070208;28;20059;-65
2022/05/16 09:39:23;;;;;;;9.93;4.28;;;;;;;-145.50;100.00;65435.88;5041642;28;20146;-65
2022/05/16 09:41:59;;;;;;;7.93;4.75;;;;;;;-145.50;100.00;65435.88;5069885;28;20066;-64
2022/05/16 09:44:29;;;;;;;9.80;4.75;;;;;;;-145.50;100.00;65435.88;5080717;28;20048;-64
2022/05/16 09:47:40;;;;;;;10.48;4.43;;;;;;;-145.50;100.00;65435.88;5079658;28;20142;-66
2022/05/16 09:50:07;;;;;;;14.38;4.10;;;;;;;-145.50;100.00;65435.88;5071311;28;20056;-65
2022/05/16 09:52:46;;;;;;;14.30;4.43;;;;;;;-145.50;100.00;65435.88;5080518;28;20160;-65
2022/05/16 09:55:24;;;;;;;11.77;4.50;;;;;;;-145.50;100.00;65435.88;5071743;28;20055;-65
2022/05/16 09:57:58;;;;;;;11.73;4.88;;;;;;;-145.50;100.00;65435.88;5082731;28;20485;-65
2022/05/16 10:00:38;;;;;;;11.00;4.63;;;;;;;-145.50;100.00;65435.88;5075180;28;20128;-64
2022/05/16 10:03:31;;;;;;;10.55;5.05;;;;;;;-145.50;100.00;65435.88;5082862;28;20671;-64
2022/05/16 10:06:01;;;;;;;11.65;4.93;;;;;;;-145.50;100.00;65435.88;5069284;28;20094;-65
2022/05/16 10:08:37;;;;;;;10.32;5.20;;;;;;;-145.50;100.00;65435.88;5078160;28;20561;-64
2022/05/16 10:11:20;;;;;;;6.95;4.20;;;;;;;-145.50;100.00;65435.88;5075267;28;20058;-64
2022/05/16 10:13:47;;;;;;;13.48;5.20;;;;;;;-145.50;100.00;65435.88;5082017;28;20054;-65
2022/05/16 10:16:15;;;;;;;7.70;5.07;;;;;;;-145.50;100.00;65435.88;5074951;28;20087;-64
2022/05/16 10:18:51;;;;;;;17.63;4.82;;;;;;;-145.50;100.00;65435.88;5064115;28;20109;-65
2022/05/16 10:21:39;;;;;;;12.45;4.18;;;;;;;-145.50;100.00;65435.88;5075371;28;20165;-65
2022/05/16 10:24:10;;;;;;;11.85;4.80;;;;;;;-145.50;100.00;65435.88;5068386;28;20145;-65
2022/05/16 10:26:44;;;;;;;11.70;4.43;;;;;;;-145.50;100.00;65435.88;5067523;28;20135;-65
2022/05/16 10:29:22;;;;;;;10.35;4.15;;;;;;;-145.50;100.00;65435.88;5073193;28;20438;-65
2022/05/16 10:34:58;;;;;;;10.75;3.70;;;;;;;-145.50;100.00;65435.88;5061408;28;20052;-64
2022/05/16 10:37:25;;;;;;;9.90;3.78;;;;;;;-145.50;100.00;65435.88;5079605;28;20050;-65
2022/05/16 10:40:08;;;;;;;10.23;3.87;;;;;;;-145.50;100.00;65435.88;5062947;28;20127;-66
2022/05/16 10:42:44;;;;;;;8.30;3.83;;;;;;;-145.50;100.00;65435.88;5071971;28;20482;-65
2022/05/16 10:45:18;;;;;;;13.15;4.43;;;;;;;-145.50;100.00;65435.88;5060628;28;20071;-66
2022/05/16 10:47:51;;;;;;;9.48;3.63;;;;;;;-145.50;100.00;65435.88;5071947;28;20420;-65
2022/05/16 10:50:31;;;;;;;10.57;4.03;;;;;;;-145.50;100.00;65435.88;5068192;28;20135;-65
2022/05/16 10:53:05;;;;;;;9.80;3.80;;;;;;;-145.50;100.00;65435.88;5072586;28;20508;-64
2022/05/16 10:56:13;;;;;;;10.68;4.22;;;;;;;-145.50;100.00;65435.88;5080085;28;20151;-67
2022/05/16 10:59:02;;;;;;;10.23;3.75;;;;;;;-145.50;100.00;65435.88;5022835;28;20058;-66
2022/05/16 11:01:40;;;;;;;14.68;3.85;;;;;;;-145.50;100.00;65435.88;5061705;28;20044;-66
2022/05/16 11:04:44;;;;;;;9.43;4.22;;;;;;;-145.50;100.00;65435.88;5066455;28;20052;-64
2022/05/16 11:07:28;;;;;;;6.72;3.72;;;;;;;-145.50;100.00;65435.88;5089663;28;20051;-65
2022/05/16 11:10:07;;;;;;;11.13;4.25;;;;;;;-145.50;100.00;65435.88;5072989;28;20139;-65
2022/05/16 11:13:00;;;;;;;15.77;4.20;;;;;;;-145.50;100.00;65435.88;5081198;28;20055;-64
2022/05/16 11:15:34;;;;;;;9.48;3.60;;;;;;;-145.50;100.00;65435.88;5068764;28;20522;-64
2022/05/16 11:18:12;;;;;;;6.15;3.40;;;;;;;-145.50;100.00;65435.88;5079837;28;20139;-65
2022/05/16 11:20:43;;;;;;;6.55;3.25;;;;;;;-145.50;100.00;65435.88;5073306;28;20456;-64
2022/05/16 11:23:23;;;;;;;8.23;2.95;;;;;;;-145.50;100.00;65435.88;5081444;28;20052;-65
2022/05/16 11:25:58;;;;;;;11.43;4.18;;;;;;;-145.50;100.00;65435.88;5067099;28;20048;-65
2022/05/16 11:28:32;;;;;;;7.82;3.60;;;;;;;-145.50;100.00;65435.88;5076437;28;20058;-66
2022/05/16 11:31:02;;;;;;;9.13;4.20;;;;;;;-145.50;100.00;65435.88;5071380;28;20562;-66
2022/05/16 11:33:51;;;;;;;9.70;4.18;;;;;;;-145.50;100.00;65435.88;5090354;28;20509;-65
2022/05/16 11:36:28;;;;;;;12.60;3.60;;;;;;;-145.50;100.00;65435.88;5080697;28;20132;-65
2022/05/16 11:39:01;;;;;;;10.60;3.80;;;;;;;-145.50;100.00;65435.88;5072537;28;20363;-66
2022/05/16 11:41:49;;;;;;;10.48;4.60;;;;;;;-145.50;100.00;65435.88;5076962;28;20083;-64
2022/05/16 11:44:31;;;;;;;10.68;5.00;;;;;;;-145.50;100.00;65435.88;5068539;28;20051;-65
2022/05/16 11:47:16;;;;;;;15.73;4.90;;;;;;;-145.50;100.00;65435.88;5080721;28;20052;-66